sensor_id;sensor_type;location;lat;lon;timestamp;temperature;humidity
46490;DHT22;32204;49.160;8.580;2022-07-01T00:00:37;17.80;99.90
46490;DHT22;32204;49.160;8.580;2022-07-01T00:03:03;18.00;99.90
46490;DHT22;32204;49.160;8.580;2022-07-01T00:05:29;18.00;99.90
46490;DHT22;32204;49.160;8.580;2022-07-01T00:07:55;18.00;99.90
46490;DHT22;32204;49.160;8.580;2022-07-01T00:10:21;17.90;99.90
46490;DHT22;32204;49.160;8.580;2022-07-01T00:12:46;17.90;99.90
46490;DHT22;32204;49.160;8.580;2022-07-01T00:15:12;17.80;99.90
46490;DHT22;32204;49.160;8.580;2022-07-01T00:17:38;17.80;99.90
46490;DHT22;32204;49.160;8.580;2022-07-01T00:20:05;17.60;99.90
46490;DHT22;32204;49.160;8.580;2022-07-01T00:22:33;17.80;99.90
46490;DHT22;32204;49.160;8.580;2022-07-01T00:24:59;17.90;99.90
46490;DHT22;32204;49.160;8.580;2022-07-01T00:27:25;17.80;99.90
46490;DHT22;32204;49.160;8.580;2022-07-01T00:29:50;17.80;99.90
46490;DHT22;32204;49.160;8.580;2022-07-01T00:32:16;17.70;99.90
46490;DHT22;32204;49.160;8.580;2022-07-01T00:34:42;17.70;99.90
46490;DHT22;32204;49.160;8.580;2022-07-01T00:37:08;17.70;99.90
46490;DHT22;32204;49.160;8.580;2022-07-01T00:39:33;17.70;99.90
46490;DHT22;32204;49.160;8.580;2022-07-01T00:42:02;18.00;99.90
46490;DHT22;32204;49.160;8.580;2022-07-01T00:44:29;18.00;99.90
46490;DHT22;32204;49.160;8.580;2022-07-01T00:46:56;18.00;99.90
46490;DHT22;32204;49.160;8.580;2022-07-01T00:49:23;18.00;99.90
46490;DHT22;32204;49.160;8.580;2022-07-01T00:51:49;18.00;99.90
46490;DHT22;32204;49.160;8.580;2022-07-01T00:54:15;18.00;99.90
46490;DHT22;32204;49.160;8.580;2022-07-01T00:56:41;17.90;99.90
46490;DHT22;32204;49.160;8.580;2022-07-01T00:59:07;17.80;99.90
46490;DHT22;32204;49.160;8.580;2022-07-01T01:01:33;17.80;99.90
46490;DHT22;32204;49.160;8.580;2022-07-01T01:03:59;17.90;99.90
46490;DHT22;32204;49.160;8.580;2022-07-01T01:06:25;17.90;99.90
46490;DHT22;32204;49.160;8.580;2022-07-01T01:08:52;17.80;99.90
46490;DHT22;32204;49.160;8.580;2022-07-01T01:11:17;17.50;99.90
46490;DHT22;32204;49.160;8.580;2022-07-01T01:13:43;17.30;99.90
46490;DHT22;32204;49.160;8.580;2022-07-01T01:16:21;17.40;99.90
46490;DHT22;32204;49.160;8.580;2022-07-01T01:18:48;17.50;99.90
46490;DHT22;32204;49.160;8.580;2022-07-01T01:21:14;17.50;99.90
46490;DHT22;32204;49.160;8.580;2022-07-01T01:23:40;17.70;99.90
46490;DHT22;32204;49.160;8.580;2022-07-01T01:26:16;17.80;99.90
46490;DHT22;32204;49.160;8.580;2022-07-01T01:28:42;17.80;99.90
46490;DHT22;32204;49.160;8.580;2022-07-01T01:31:08;17.80;99.90
46490;DHT22;32204;49.160;8.580;2022-07-01T01:33:34;17.80;99.90
46490;DHT22;32204;49.160;8.580;2022-07-01T01:35:59;17.70;99.90
46490;DHT22;32204;49.160;8.580;2022-07-01T01:38:25;17.50;99.90
46490;DHT22;32204;49.160;8.580;2022-07-01T01:40:51;17.50;99.90
46490;DHT22;32204;49.160;8.580;2022-07-01T01:43:17;17.40;99.90
46490;DHT22;32204;49.160;8.580;2022-07-01T01:45:43;17.30;99.90
46490;DHT22;32204;49.160;8.580;2022-07-01T01:48:09;17.40;99.90
46490;DHT22;32204;49.160;8.580;2022-07-01T01:50:34;17.30;99.90
46490;DHT22;32204;49.160;8.580;2022-07-01T01:53:00;17.30;99.90
46490;DHT22;32204;49.160;8.580;2022-07-01T01:55:25;17.20;99.90
46490;DHT22;32204;49.160;8.580;2022-07-01T01:57:51;17.20;99.90
46490;DHT22;32204;49.160;8.580;2022-07-01T02:00:17;17.10;99.90
46490;DHT22;32204;49.160;8.580;2022-07-01T02:02:42;17.10;99.90
46490;DHT22;32204;49.160;8.580;2022-07-01T02:05:13;17.10;99.90
46490;DHT22;32204;49.160;8.580;2022-07-01T02:07:39;17.10;99.90
46490;DHT22;32204;49.160;8.580;2022-07-01T02:10:06;17.00;99.90
46490;DHT22;32204;49.160;8.580;2022-07-01T02:12:31;16.90;99.90
46490;DHT22;32204;49.160;8.580;2022-07-01T02:14:57;16.90;99.90
46490;DHT22;32204;49.160;8.580;2022-07-01T02:17:23;16.90;99.90
46490;DHT22;32204;49.160;8.580;2022-07-01T02:19:50;16.90;99.90
46490;DHT22;32204;49.160;8.580;2022-07-01T02:22:16;16.80;99.90
46490;DHT22;32204;49.160;8.580;2022-07-01T02:24:41;16.70;99.90
46490;DHT22;32204;49.160;8.580;2022-07-01T02:27:09;16.70;99.90
46490;DHT22;32204;49.160;8.580;2022-07-01T02:29:35;16.80;99.90
46490;DHT22;32204;49.160;8.580;2022-07-01T02:32:00;16.80;99.90
46490;DHT22;32204;49.160;8.580;2022-07-01T02:34:26;16.70;99.90
46490;DHT22;32204;49.160;8.580;2022-07-01T02:36:51;16.70;99.90
46490;DHT22;32204;49.160;8.580;2022-07-01T02:39:21;16.70;99.90
46490;DHT22;32204;49.160;8.580;2022-07-01T02:41:47;16.60;99.90
46490;DHT22;32204;49.160;8.580;2022-07-01T02:44:31;16.60;99.90
46490;DHT22;32204;49.160;8.580;2022-07-01T02:46:56;16.50;99.90
46490;DHT22;32204;49.160;8.580;2022-07-01T02:49:22;16.50;99.90
46490;DHT22;32204;49.160;8.580;2022-07-01T02:51:48;16.40;99.90
46490;DHT22;32204;49.160;8.580;2022-07-01T02:54:13;16.40;99.90
46490;DHT22;32204;49.160;8.580;2022-07-01T02:56:39;16.30;99.90
46490;DHT22;32204;49.160;8.580;2022-07-01T02:59:04;16.40;99.90
46490;DHT22;32204;49.160;8.580;2022-07-01T03:01:30;16.30;99.90
46490;DHT22;32204;49.160;8.580;2022-07-01T03:03:56;16.30;99.90
46490;DHT22;32204;49.160;8.580;2022-07-01T03:06:21;16.40;99.90
46490;DHT22;32204;49.160;8.580;2022-07-01T03:08:47;16.40;99.90
46490;DHT22;32204;49.160;8.580;2022-07-01T03:11:12;16.40;99.90
46490;DHT22;32204;49.160;8.580;2022-07-01T03:13:38;16.40;99.90
46490;DHT22;32204;49.160;8.580;2022-07-01T03:16:04;16.60;99.90
46490;DHT22;32204;49.160;8.580;2022-07-01T03:18:29;16.50;99.90
46490;DHT22;32204;49.160;8.580;2022-07-01T03:20:55;16.50;99.90
46490;DHT22;32204;49.160;8.580;2022-07-01T03:23:21;16.40;99.90
46490;DHT22;32204;49.160;8.580;2022-07-01T03:25:46;16.30;99.90
46490;DHT22;32204;49.160;8.580;2022-07-01T03:28:13;16.20;99.90
46490;DHT22;32204;49.160;8.580;2022-07-01T03:30:38;16.10;99.90
46490;DHT22;32204;49.160;8.580;2022-07-01T03:33:04;16.10;99.90
46490;DHT22;32204;49.160;8.580;2022-07-01T03:35:29;16.20;99.90
46490;DHT22;32204;49.160;8.580;2022-07-01T03:38:02;16.20;99.90
46490;DHT22;32204;49.160;8.580;2022-07-01T03:40:29;16.20;99.90
46490;DHT22;32204;49.160;8.580;2022-07-01T03:42:55;16.10;99.90
46490;DHT22;32204;49.160;8.580;2022-07-01T03:45:21;16.10;99.90
46490;DHT22;32204;49.160;8.580;2022-07-01T03:47:47;16.10;99.90
46490;DHT22;32204;49.160;8.580;2022-07-01T03:50:14;16.00;99.90
46490;DHT22;32204;49.160;8.580;2022-07-01T03:52:41;16.00;99.90
46490;DHT22;32204;49.160;8.580;2022-07-01T03:55:11;16.20;99.90
46490;DHT22;32204;49.160;8.580;2022-07-01T03:57:38;16.20;99.90
46490;DHT22;32204;49.160;8.580;2022-07-01T04:00:05;16.30;99.90
46490;DHT22;32204;49.160;8.580;2022-07-01T04:02:32;16.30;99.90
46490;DHT22;32204;49.160;8.580;2022-07-01T04:04:57;16.30;99.90
46490;DHT22;32204;49.160;8.580;2022-07-01T04:07:23;16.10;99.90
46490;DHT22;32204;49.160;8.580;2022-07-01T04:09:49;16.20;99.90
46490;DHT22;32204;49.160;8.580;2022-07-01T04:12:15;16.20;99.90
46490;DHT22;32204;49.160;8.580;2022-07-01T04:14:41;16.30;99.90
46490;DHT22;32204;49.160;8.580;2022-07-01T04:17:07;16.30;99.90
46490;DHT22;32204;49.160;8.580;2022-07-01T04:19:32;16.30;99.90
46490;DHT22;32204;49.160;8.580;2022-07-01T04:21:59;16.30;99.90
46490;DHT22;32204;49.160;8.580;2022-07-01T04:24:44;16.20;99.90
46490;DHT22;32204;49.160;8.580;2022-07-01T04:27:10;16.20;99.90
46490;DHT22;32204;49.160;8.580;2022-07-01T04:29:36;16.30;99.90
46490;DHT22;32204;49.160;8.580;2022-07-01T04:32:02;16.40;99.90
46490;DHT22;32204;49.160;8.580;2022-07-01T04:34:28;16.50;99.90
46490;DHT22;32204;49.160;8.580;2022-07-01T04:36:54;16.50;99.90
46490;DHT22;32204;49.160;8.580;2022-07-01T04:39:20;16.50;99.90
46490;DHT22;32204;49.160;8.580;2022-07-01T04:41:46;16.50;99.90
46490;DHT22;32204;49.160;8.580;2022-07-01T04:44:35;16.60;99.90
46490;DHT22;32204;49.160;8.580;2022-07-01T04:47:02;16.40;99.90
46490;DHT22;32204;49.160;8.580;2022-07-01T04:49:28;16.50;99.90
46490;DHT22;32204;49.160;8.580;2022-07-01T04:51:54;16.50;99.90
46490;DHT22;32204;49.160;8.580;2022-07-01T04:54:20;16.60;99.90
46490;DHT22;32204;49.160;8.580;2022-07-01T04:56:46;16.60;99.90
46490;DHT22;32204;49.160;8.580;2022-07-01T04:59:13;16.70;99.90
46490;DHT22;32204;49.160;8.580;2022-07-01T05:01:40;16.80;99.90
46490;DHT22;32204;49.160;8.580;2022-07-01T05:04:06;16.80;99.90
46490;DHT22;32204;49.160;8.580;2022-07-01T05:06:32;16.80;99.90
46490;DHT22;32204;49.160;8.580;2022-07-01T05:08:59;16.60;99.90
46490;DHT22;32204;49.160;8.580;2022-07-01T05:11:25;16.60;99.90
46490;DHT22;32204;49.160;8.580;2022-07-01T05:13:50;16.50;99.90
46490;DHT22;32204;49.160;8.580;2022-07-01T05:16:17;16.50;99.90
46490;DHT22;32204;49.160;8.580;2022-07-01T05:18:42;16.60;99.90
46490;DHT22;32204;49.160;8.580;2022-07-01T05:21:30;16.70;99.90
46490;DHT22;32204;49.160;8.580;2022-07-01T05:24:14;16.70;99.90
46490;DHT22;32204;49.160;8.580;2022-07-01T05:26:40;16.70;99.90
46490;DHT22;32204;49.160;8.580;2022-07-01T05:29:05;16.80;99.90
46490;DHT22;32204;49.160;8.580;2022-07-01T05:31:31;16.90;99.90
46490;DHT22;32204;49.160;8.580;2022-07-01T05:33:57;16.80;99.90
46490;DHT22;32204;49.160;8.580;2022-07-01T05:36:23;16.80;99.90
46490;DHT22;32204;49.160;8.580;2022-07-01T05:38:49;16.90;99.90
46490;DHT22;32204;49.160;8.580;2022-07-01T05:41:14;16.70;99.90
46490;DHT22;32204;49.160;8.580;2022-07-01T05:43:41;16.60;99.90
46490;DHT22;32204;49.160;8.580;2022-07-01T05:46:06;16.70;99.90
46490;DHT22;32204;49.160;8.580;2022-07-01T05:48:32;16.70;99.90
46490;DHT22;32204;49.160;8.580;2022-07-01T05:51:01;16.70;99.90
46490;DHT22;32204;49.160;8.580;2022-07-01T05:53:26;16.80;99.90
46490;DHT22;32204;49.160;8.580;2022-07-01T05:55:52;16.80;99.90
46490;DHT22;32204;49.160;8.580;2022-07-01T05:58:18;16.80;99.90
46490;DHT22;32204;49.160;8.580;2022-07-01T06:00:44;16.90;99.90
46490;DHT22;32204;49.160;8.580;2022-07-01T06:03:10;16.90;99.90
46490;DHT22;32204;49.160;8.580;2022-07-01T06:05:37;16.80;99.90
46490;DHT22;32204;49.160;8.580;2022-07-01T06:08:03;16.90;99.90
46490;DHT22;32204;49.160;8.580;2022-07-01T06:10:29;16.80;99.90
46490;DHT22;32204;49.160;8.580;2022-07-01T06:12:55;16.80;99.90
46490;DHT22;32204;49.160;8.580;2022-07-01T06:15:20;16.70;99.90
46490;DHT22;32204;49.160;8.580;2022-07-01T06:17:46;16.70;99.90
46490;DHT22;32204;49.160;8.580;2022-07-01T06:20:12;16.80;99.90
46490;DHT22;32204;49.160;8.580;2022-07-01T06:22:38;16.80;99.90
46490;DHT22;32204;49.160;8.580;2022-07-01T06:25:10;16.80;99.90
46490;DHT22;32204;49.160;8.580;2022-07-01T06:27:40;16.80;99.90
46490;DHT22;32204;49.160;8.580;2022-07-01T06:30:07;16.80;99.90
46490;DHT22;32204;49.160;8.580;2022-07-01T06:32:33;16.70;99.90
46490;DHT22;32204;49.160;8.580;2022-07-01T06:34:59;16.50;99.90
46490;DHT22;32204;49.160;8.580;2022-07-01T06:37:28;16.60;99.90
46490;DHT22;32204;49.160;8.580;2022-07-01T06:39:58;16.70;99.90
46490;DHT22;32204;49.160;8.580;2022-07-01T06:42:24;16.80;99.90
46490;DHT22;32204;49.160;8.580;2022-07-01T06:44:50;16.90;99.90
46490;DHT22;32204;49.160;8.580;2022-07-01T06:47:16;16.80;99.90
46490;DHT22;32204;49.160;8.580;2022-07-01T06:49:42;16.90;99.90
46490;DHT22;32204;49.160;8.580;2022-07-01T06:52:08;16.90;99.90
46490;DHT22;32204;49.160;8.580;2022-07-01T06:54:33;17.00;99.90
46490;DHT22;32204;49.160;8.580;2022-07-01T06:57:03;17.00;99.90
46490;DHT22;32204;49.160;8.580;2022-07-01T06:59:33;16.90;99.90
46490;DHT22;32204;49.160;8.580;2022-07-01T07:01:58;16.90;99.90
46490;DHT22;32204;49.160;8.580;2022-07-01T07:04:24;16.80;99.90
46490;DHT22;32204;49.160;8.580;2022-07-01T07:06:50;16.80;99.90
46490;DHT22;32204;49.160;8.580;2022-07-01T07:09:16;16.70;99.90
46490;DHT22;32204;49.160;8.580;2022-07-01T07:11:41;16.70;99.90
46490;DHT22;32204;49.160;8.580;2022-07-01T07:14:07;16.70;99.90
46490;DHT22;32204;49.160;8.580;2022-07-01T07:16:32;16.80;99.90
46490;DHT22;32204;49.160;8.580;2022-07-01T07:18:58;17.00;99.90
46490;DHT22;32204;49.160;8.580;2022-07-01T07:21:24;16.90;99.90
46490;DHT22;32204;49.160;8.580;2022-07-01T07:23:50;16.80;99.90
46490;DHT22;32204;49.160;8.580;2022-07-01T07:26:15;16.70;99.90
46490;DHT22;32204;49.160;8.580;2022-07-01T07:28:41;16.60;99.90
46490;DHT22;32204;49.160;8.580;2022-07-01T07:31:07;16.70;99.90
46490;DHT22;32204;49.160;8.580;2022-07-01T07:33:33;16.90;99.90
46490;DHT22;32204;49.160;8.580;2022-07-01T07:35:58;17.00;99.90
46490;DHT22;32204;49.160;8.580;2022-07-01T07:38:26;17.00;99.90
46490;DHT22;32204;49.160;8.580;2022-07-01T07:40:52;17.00;99.90
46490;DHT22;32204;49.160;8.580;2022-07-01T07:43:17;17.00;99.90
46490;DHT22;32204;49.160;8.580;2022-07-01T07:45:43;17.00;99.90
46490;DHT22;32204;49.160;8.580;2022-07-01T07:48:09;16.90;99.90
46490;DHT22;32204;49.160;8.580;2022-07-01T07:50:35;17.10;99.90
46490;DHT22;32204;49.160;8.580;2022-07-01T07:53:01;17.10;99.90
46490;DHT22;32204;49.160;8.580;2022-07-01T07:55:27;17.00;99.90
46490;DHT22;32204;49.160;8.580;2022-07-01T07:57:53;17.00;99.90
46490;DHT22;32204;49.160;8.580;2022-07-01T08:00:19;17.10;99.90
46490;DHT22;32204;49.160;8.580;2022-07-01T08:02:45;17.40;99.90
46490;DHT22;32204;49.160;8.580;2022-07-01T08:05:11;17.70;99.90
46490;DHT22;32204;49.160;8.580;2022-07-01T08:07:39;17.90;99.90
46490;DHT22;32204;49.160;8.580;2022-07-01T08:10:06;17.80;99.90
46490;DHT22;32204;49.160;8.580;2022-07-01T08:12:32;17.90;99.30
46490;DHT22;32204;49.160;8.580;2022-07-01T08:14:58;17.70;99.90
46490;DHT22;32204;49.160;8.580;2022-07-01T08:17:24;17.70;99.90
46490;DHT22;32204;49.160;8.580;2022-07-01T08:19:50;17.70;99.90
46490;DHT22;32204;49.160;8.580;2022-07-01T08:22:16;17.60;99.90
46490;DHT22;32204;49.160;8.580;2022-07-01T08:24:42;17.40;99.90
46490;DHT22;32204;49.160;8.580;2022-07-01T08:27:07;17.30;99.90
46490;DHT22;32204;49.160;8.580;2022-07-01T08:29:33;17.10;99.90
46490;DHT22;32204;49.160;8.580;2022-07-01T08:31:59;17.10;99.90
46490;DHT22;32204;49.160;8.580;2022-07-01T08:34:25;17.10;99.90
46490;DHT22;32204;49.160;8.580;2022-07-01T08:36:50;17.10;99.90
46490;DHT22;32204;49.160;8.580;2022-07-01T08:39:17;17.00;99.90
46490;DHT22;32204;49.160;8.580;2022-07-01T08:41:42;17.00;99.90
46490;DHT22;32204;49.160;8.580;2022-07-01T08:44:09;17.00;99.90
46490;DHT22;32204;49.160;8.580;2022-07-01T08:46:35;17.10;99.90
46490;DHT22;32204;49.160;8.580;2022-07-01T08:49:01;17.10;99.90
46490;DHT22;32204;49.160;8.580;2022-07-01T08:51:27;17.00;99.90
46490;DHT22;32204;49.160;8.580;2022-07-01T08:53:53;17.10;99.90
46490;DHT22;32204;49.160;8.580;2022-07-01T08:56:19;17.00;99.90
46490;DHT22;32204;49.160;8.580;2022-07-01T08:59:03;17.20;99.90
46490;DHT22;32204;49.160;8.580;2022-07-01T09:01:31;17.40;99.90
46490;DHT22;32204;49.160;8.580;2022-07-01T09:04:16;17.60;99.90
46490;DHT22;32204;49.160;8.580;2022-07-01T09:06:43;17.80;99.90
46490;DHT22;32204;49.160;8.580;2022-07-01T09:09:21;17.70;99.90
46490;DHT22;32204;49.160;8.580;2022-07-01T09:11:50;18.00;99.90
46490;DHT22;32204;49.160;8.580;2022-07-01T09:16:51;18.40;99.90
46490;DHT22;32204;49.160;8.580;2022-07-01T09:19:19;18.40;22.70
46490;DHT22;32204;49.160;8.580;2022-07-01T09:21:50;18.20;89.80
46490;DHT22;32204;49.160;8.580;2022-07-01T09:24:29;18.50;88.90
46490;DHT22;32204;49.160;8.580;2022-07-01T09:29:29;18.70;11.90
46490;DHT22;32204;49.160;8.580;2022-07-01T09:31:57;18.50;23.10
46490;DHT22;32204;49.160;8.580;2022-07-01T09:34:24;18.40;44.20
46490;DHT22;32204;49.160;8.580;2022-07-01T09:36:57;18.10;54.40
46490;DHT22;32204;49.160;8.580;2022-07-01T09:39:23;18.10;43.10
46490;DHT22;32204;49.160;8.580;2022-07-01T09:41:49;18.40;91.80
46490;DHT22;32204;49.160;8.580;2022-07-01T09:44:18;18.50;1.00
46490;DHT22;32204;49.160;8.580;2022-07-01T09:46:57;18.70;7.20
46490;DHT22;32204;49.160;8.580;2022-07-01T09:49:23;18.90;1.00
46490;DHT22;32204;49.160;8.580;2022-07-01T09:51:53;18.70;1.00
46490;DHT22;32204;49.160;8.580;2022-07-01T09:54:19;18.70;1.00
46490;DHT22;32204;49.160;8.580;2022-07-01T09:56:49;18.50;1.00
46490;DHT22;32204;49.160;8.580;2022-07-01T09:59:15;18.60;1.00
46490;DHT22;32204;49.160;8.580;2022-07-01T10:01:44;18.60;1.00
46490;DHT22;32204;49.160;8.580;2022-07-01T10:04:12;18.40;1.00
46490;DHT22;32204;49.160;8.580;2022-07-01T10:06:50;18.60;1.00
46490;DHT22;32204;49.160;8.580;2022-07-01T10:12:25;18.80;1.00
46490;DHT22;32204;49.160;8.580;2022-07-01T10:15:01;18.90;1.00
46490;DHT22;32204;49.160;8.580;2022-07-01T10:17:29;19.30;1.00
46490;DHT22;32204;49.160;8.580;2022-07-01T10:19:56;19.50;1.00
46490;DHT22;32204;49.160;8.580;2022-07-01T10:22:28;19.90;1.00
46490;DHT22;32204;49.160;8.580;2022-07-01T10:24:55;20.00;1.00
46490;DHT22;32204;49.160;8.580;2022-07-01T10:27:23;20.30;1.00
46490;DHT22;32204;49.160;8.580;2022-07-01T10:29:51;20.10;1.00
46490;DHT22;32204;49.160;8.580;2022-07-01T10:32:46;20.00;1.00
46490;DHT22;32204;49.160;8.580;2022-07-01T10:35:12;19.90;1.00
46490;DHT22;32204;49.160;8.580;2022-07-01T10:37:57;20.00;1.00
46490;DHT22;32204;49.160;8.580;2022-07-01T10:40:40;19.70;1.00
46490;DHT22;32204;49.160;8.580;2022-07-01T10:43:06;19.90;1.00
46490;DHT22;32204;49.160;8.580;2022-07-01T10:45:45;20.10;1.00
46490;DHT22;32204;49.160;8.580;2022-07-01T10:48:23;19.90;99.90
46490;DHT22;32204;49.160;8.580;2022-07-01T10:50:53;20.30;1.00
46490;DHT22;32204;49.160;8.580;2022-07-01T10:53:19;20.80;1.00
46490;DHT22;32204;49.160;8.580;2022-07-01T10:55:50;21.10;99.90
46490;DHT22;32204;49.160;8.580;2022-07-01T10:58:16;20.80;99.90
46490;DHT22;32204;49.160;8.580;2022-07-01T11:00:48;20.50;99.90
46490;DHT22;32204;49.160;8.580;2022-07-01T11:03:18;20.30;99.90
46490;DHT22;32204;49.160;8.580;2022-07-01T11:05:45;20.20;99.90
46490;DHT22;32204;49.160;8.580;2022-07-01T11:08:11;20.10;99.90
46490;DHT22;32204;49.160;8.580;2022-07-01T11:10:39;20.10;99.90
46490;DHT22;32204;49.160;8.580;2022-07-01T11:13:06;20.30;1.00
46490;DHT22;32204;49.160;8.580;2022-07-01T11:15:33;20.20;99.90
46490;DHT22;32204;49.160;8.580;2022-07-01T11:17:59;20.20;99.90
46490;DHT22;32204;49.160;8.580;2022-07-01T11:20:29;20.40;99.90
46490;DHT22;32204;49.160;8.580;2022-07-01T11:22:55;20.80;99.90
46490;DHT22;32204;49.160;8.580;2022-07-01T11:25:22;21.10;99.90
46490;DHT22;32204;49.160;8.580;2022-07-01T11:27:52;21.30;99.90
46490;DHT22;32204;49.160;8.580;2022-07-01T11:30:19;21.40;99.90
46490;DHT22;32204;49.160;8.580;2022-07-01T11:32:48;21.50;99.90
46490;DHT22;32204;49.160;8.580;2022-07-01T11:35:20;21.40;99.90
46490;DHT22;32204;49.160;8.580;2022-07-01T11:40:50;21.70;99.90
46490;DHT22;32204;49.160;8.580;2022-07-01T11:43:26;21.90;99.90
46490;DHT22;32204;49.160;8.580;2022-07-01T11:45:53;22.20;99.90
46490;DHT22;32204;49.160;8.580;2022-07-01T11:48:39;22.40;99.90
46490;DHT22;32204;49.160;8.580;2022-07-01T11:51:15;22.50;99.90
46490;DHT22;32204;49.160;8.580;2022-07-01T11:53:43;22.70;99.90
46490;DHT22;32204;49.160;8.580;2022-07-01T11:56:13;22.80;99.90
46490;DHT22;32204;49.160;8.580;2022-07-01T11:58:43;23.00;99.90
46490;DHT22;32204;49.160;8.580;2022-07-01T12:01:08;23.10;99.90
46490;DHT22;32204;49.160;8.580;2022-07-01T12:03:36;22.90;99.90
46490;DHT22;32204;49.160;8.580;2022-07-01T12:06:04;22.80;99.90
46490;DHT22;32204;49.160;8.580;2022-07-01T12:08:30;22.60;99.90
46490;DHT22;32204;49.160;8.580;2022-07-01T12:10:57;22.10;99.90
46490;DHT22;32204;49.160;8.580;2022-07-01T12:13:26;22.20;99.90
46490;DHT22;32204;49.160;8.580;2022-07-01T12:15:53;22.60;99.90
46490;DHT22;32204;49.160;8.580;2022-07-01T12:18:19;22.80;99.90
46490;DHT22;32204;49.160;8.580;2022-07-01T12:20:54;22.90;99.90
46490;DHT22;32204;49.160;8.580;2022-07-01T12:23:20;23.10;99.90
46490;DHT22;32204;49.160;8.580;2022-07-01T12:25:50;23.00;99.90
46490;DHT22;32204;49.160;8.580;2022-07-01T12:28:25;22.80;99.90
46490;DHT22;32204;49.160;8.580;2022-07-01T12:31:05;23.00;99.90
46490;DHT22;32204;49.160;8.580;2022-07-01T12:33:48;23.20;99.90
46490;DHT22;32204;49.160;8.580;2022-07-01T12:36:14;23.10;99.90
46490;DHT22;32204;49.160;8.580;2022-07-01T12:38:41;23.10;99.90
46490;DHT22;32204;49.160;8.580;2022-07-01T12:41:33;23.00;99.90
46490;DHT22;32204;49.160;8.580;2022-07-01T12:44:22;23.10;99.90
46490;DHT22;32204;49.160;8.580;2022-07-01T12:46:48;23.50;99.90
46490;DHT22;32204;49.160;8.580;2022-07-01T12:49:24;23.20;99.90
46490;DHT22;32204;49.160;8.580;2022-07-01T12:51:53;23.60;99.90
46490;DHT22;32204;49.160;8.580;2022-07-01T12:54:48;23.90;3.10
46490;DHT22;32204;49.160;8.580;2022-07-01T12:57:14;23.30;1.00
46490;DHT22;32204;49.160;8.580;2022-07-01T12:59:44;23.10;1.00
46490;DHT22;32204;49.160;8.580;2022-07-01T13:02:12;23.40;1.00
46490;DHT22;32204;49.160;8.580;2022-07-01T13:04:41;23.60;99.90
46490;DHT22;32204;49.160;8.580;2022-07-01T13:07:13;23.70;42.50
46490;DHT22;32204;49.160;8.580;2022-07-01T13:09:42;23.70;1.00
46490;DHT22;32204;49.160;8.580;2022-07-01T13:12:08;23.40;98.90
46490;DHT22;32204;49.160;8.580;2022-07-01T13:14:34;23.50;1.00
46490;DHT22;32204;49.160;8.580;2022-07-01T13:17:00;23.80;1.00
46490;DHT22;32204;49.160;8.580;2022-07-01T13:19:26;23.90;1.00
46490;DHT22;32204;49.160;8.580;2022-07-01T13:21:54;23.80;99.90
46490;DHT22;32204;49.160;8.580;2022-07-01T13:24:20;23.50;1.00
46490;DHT22;32204;49.160;8.580;2022-07-01T13:26:47;23.30;1.00
46490;DHT22;32204;49.160;8.580;2022-07-01T13:29:14;23.50;1.00
46490;DHT22;32204;49.160;8.580;2022-07-01T13:31:42;23.40;1.00
46490;DHT22;32204;49.160;8.580;2022-07-01T13:34:08;23.30;99.90
46490;DHT22;32204;49.160;8.580;2022-07-01T13:36:34;23.20;99.90
46490;DHT22;32204;49.160;8.580;2022-07-01T13:39:00;23.50;99.90
46490;DHT22;32204;49.160;8.580;2022-07-01T13:41:26;23.50;99.90
46490;DHT22;32204;49.160;8.580;2022-07-01T13:43:52;22.90;99.90
46490;DHT22;32204;49.160;8.580;2022-07-01T13:46:21;22.90;1.00
46490;DHT22;32204;49.160;8.580;2022-07-01T13:48:50;23.00;1.00
46490;DHT22;32204;49.160;8.580;2022-07-01T13:51:16;23.10;22.60
46490;DHT22;32204;49.160;8.580;2022-07-01T13:53:48;23.30;1.00
46490;DHT22;32204;49.160;8.580;2022-07-01T13:56:13;23.60;99.90
46490;DHT22;32204;49.160;8.580;2022-07-01T13:58:42;23.60;99.90
46490;DHT22;32204;49.160;8.580;2022-07-01T14:01:08;23.50;99.90
46490;DHT22;32204;49.160;8.580;2022-07-01T14:03:34;23.60;99.90
46490;DHT22;32204;49.160;8.580;2022-07-01T14:06:00;23.70;99.90
46490;DHT22;32204;49.160;8.580;2022-07-01T14:08:29;23.80;99.90
46490;DHT22;32204;49.160;8.580;2022-07-01T14:10:54;23.60;99.90
46490;DHT22;32204;49.160;8.580;2022-07-01T14:13:20;23.80;99.90
46490;DHT22;32204;49.160;8.580;2022-07-01T14:15:47;24.10;99.90
46490;DHT22;32204;49.160;8.580;2022-07-01T14:18:13;24.40;99.90
46490;DHT22;32204;49.160;8.580;2022-07-01T14:20:41;24.40;40.80
46490;DHT22;32204;49.160;8.580;2022-07-01T14:23:07;24.30;1.00
46490;DHT22;32204;49.160;8.580;2022-07-01T14:25:35;24.00;3.50
46490;DHT22;32204;49.160;8.580;2022-07-01T14:28:01;24.00;98.90
46490;DHT22;32204;49.160;8.580;2022-07-01T14:30:27;24.10;99.90
46490;DHT22;32204;49.160;8.580;2022-07-01T14:32:52;23.60;1.00
46490;DHT22;32204;49.160;8.580;2022-07-01T14:35:18;23.50;99.90
46490;DHT22;32204;49.160;8.580;2022-07-01T14:37:43;23.50;62.40
46490;DHT22;32204;49.160;8.580;2022-07-01T14:40:10;23.50;1.00
46490;DHT22;32204;49.160;8.580;2022-07-01T14:42:37;23.60;99.90
46490;DHT22;32204;49.160;8.580;2022-07-01T14:45:05;23.70;99.90
46490;DHT22;32204;49.160;8.580;2022-07-01T14:47:31;23.60;29.90
46490;DHT22;32204;49.160;8.580;2022-07-01T14:49:58;23.50;99.90
46490;DHT22;32204;49.160;8.580;2022-07-01T14:52:34;23.50;25.00
46490;DHT22;32204;49.160;8.580;2022-07-01T14:55:03;23.50;99.90
46490;DHT22;32204;49.160;8.580;2022-07-01T14:57:32;23.50;1.00
46490;DHT22;32204;49.160;8.580;2022-07-01T14:59:59;23.60;1.00
46490;DHT22;32204;49.160;8.580;2022-07-01T15:02:26;24.10;1.00
46490;DHT22;32204;49.160;8.580;2022-07-01T15:04:52;24.50;99.90
46490;DHT22;32204;49.160;8.580;2022-07-01T15:07:18;25.00;97.50
46490;DHT22;32204;49.160;8.580;2022-07-01T15:09:43;24.40;1.00
46490;DHT22;32204;49.160;8.580;2022-07-01T15:12:09;24.40;15.40
46490;DHT22;32204;49.160;8.580;2022-07-01T15:14:35;24.40;27.60
46490;DHT22;32204;49.160;8.580;2022-07-01T15:17:01;24.60;1.00
46490;DHT22;32204;49.160;8.580;2022-07-01T15:19:27;25.00;99.90
46490;DHT22;32204;49.160;8.580;2022-07-01T15:21:54;25.40;99.90
46490;DHT22;32204;49.160;8.580;2022-07-01T15:24:20;25.30;1.00
46490;DHT22;32204;49.160;8.580;2022-07-01T15:26:46;25.10;1.00
46490;DHT22;32204;49.160;8.580;2022-07-01T15:29:12;24.70;1.00
46490;DHT22;32204;49.160;8.580;2022-07-01T15:31:38;24.50;1.00
46490;DHT22;32204;49.160;8.580;2022-07-01T15:34:04;24.70;1.00
46490;DHT22;32204;49.160;8.580;2022-07-01T15:36:29;24.60;61.10
46490;DHT22;32204;49.160;8.580;2022-07-01T15:38:55;24.60;99.90
46490;DHT22;32204;49.160;8.580;2022-07-01T15:41:23;24.90;40.30
46490;DHT22;32204;49.160;8.580;2022-07-01T15:43:53;25.10;99.90
46490;DHT22;32204;49.160;8.580;2022-07-01T15:46:19;25.40;70.70